Memphis, MO (63555)

7:02 PM CDT on August 25, 2016 (GMT -0500)
IADOT | | Change Station

Elev 692 ft 40.66 °N, 92.06 °W | Updated 31 minutes ago

Overcast
Overcast
75 °F
Feels Like 77 °F
N
2
Wind Variable Wind from North
Gusts 3.0 mph

Today
High -- | Low -- °F
--% Chance of Precip.
Yesterday
High -- | Low -- °F
Precip. -- in
Pressure 30.07 in
Visibility 10.0 miles
Clouds Scattered Clouds 5000 ft
Overcast 6000 ft
Heat Index 77 °F
Dew Point 60 °F
Humidity 58%
Rainfall in
Snow Depth Not available.
6:29 AM 7:50 PM
Last Quarter, 40% visible
METAR KIRK 252355Z AUTO 04004KT 10SM SCT050 OVC060 23/18 A3008 RMK AO2 SLP181 60059 T02330178 10256 20206 55000
Pressure 30.07 in
Visibility 10.0 miles
Clouds Scattered Clouds 5000 ft
Overcast 6000 ft
Heat Index 77 °F
Dew Point 60 °F
Humidity 58%
Rainfall in
Snow Depth Not available.
6:29 AM 7:50 PM
Last Quarter, 40% visible
METAR KIRK 252355Z AUTO 04004KT 10SM SCT050 OVC060 23/18 A3008 RMK AO2 SLP181 60059 T02330178 10256 20206 55000
A tropical disturbance pushing toward the Bahamas, is expected to develop into a tropical depression or storm, and will likely target Florida and the Gulf Coast this weekend into next week.

Right now, the disturbance remains a broad area of low pressure pushing through the Dominican Republic and Haiti, headed toward the southeast Bahamas. Rainfall totals over 3 inches (with locally higher amounts) are expected in HispaƱiola, particularly over elevated terrain.

10-Day Weather Forecast

Almanac

Astronomy

Aug. 25, 2016 Rise Set
Actual Time
Civil Twilight
Nautical Twilight
Astronomical Twilight
Moon
Length of Visible Light
Length of Day
Tomorrow will be .
, % of the Moon is Illuminated

Today's Extremes

State Highs State Lows

Community

WunderPhotos

Upload Photos

1,934,970 photos uploaded!

WunderBlog® & News

Nearby

Air Quality

  Air Quality AQ Index Pollutant
Not available.

Snow Depth

Station Depth Elevation

Earthquake Activity

City Distance Mag. Time & Date
Minimum magnitude displayed is 2.5.

Coastal Water Temperatures

Place Temperature

Stations

Nearby Weather Stations

Station Location Temp. Windchill Dew Point Humidity Wind Precip. Elev Updated Type
                   

Watches & Warnings

There are currently no watches in effect.